Time;durP1;ratioP1;P1;durP2;ratioP2;P2;SDS_P1;SDS_P2;PMS_P1;PMS_P2;Temp;Humidity;BMP_temperature;BMP_pressure;BME280_temperature;BME280_humidity;BME280_pressure;Samples;Min_cycle;Max_cycle;Signal;HPM_P1;HPM_P2
2022/03/05 00:01:16;;;;;;;;;;;3.70;99.90;;;;;;5096479;28;19912;-65
2022/03/05 00:03:42;;;;;;;;;;;3.70;99.90;;;;;;5096011;28;19908;-64
2022/03/05 00:06:07;;;;;;;;;;;3.70;99.90;;;;;;5078619;28;19912;-63
2022/03/05 00:08:32;;;;;;;;;;;3.60;99.90;;;;;;5077836;28;19915;-65
2022/03/05 00:10:58;;;;;;;;;;;3.60;99.90;;;;;;5078323;28;20273;-65
2022/03/05 00:13:24;;;;;;;;;;;3.50;99.90;;;;;;5096033;28;20349;-65
2022/03/05 00:15:49;;;;;;;;;;;3.40;99.90;;;;;;5096532;28;19951;-65
2022/03/05 00:18:15;;;;;;;;;;;3.50;99.90;;;;;;5099923;28;19920;-68
2022/03/05 00:20:41;;;;;;;;;;;3.50;99.90;;;;;;5097666;28;20086;-68
2022/03/05 00:23:07;;;;;;;;;;;3.50;99.90;;;;;;5098591;28;20396;-66
2022/03/05 00:25:32;;;;;;;;;;;3.40;99.90;;;;;;5097482;28;19920;-69
2022/03/05 00:27:58;;;;;;;;;;;3.50;99.90;;;;;;5097987;28;20238;-69
2022/03/05 00:30:23;;;;;;;;;;;3.30;99.90;;;;;;5097088;28;19913;-68
2022/03/05 00:32:50;;;;;;;;;;;3.50;99.90;;;;;;5097892;28;19908;-72
2022/03/05 00:35:17;;;;;;;;;;;3.50;99.90;;;;;;5078872;28;19951;-64
2022/03/05 00:37:42;;;;;;;;;;;3.40;99.90;;;;;;5095968;28;19918;-69
2022/03/05 00:40:09;;;;;;;;;;;3.40;99.90;;;;;;5096978;28;20268;-67
2022/03/05 00:42:35;;;;;;;;;;;3.30;99.90;;;;;;5096635;28;20013;-67
2022/03/05 00:45:01;;;;;;;;;;;3.30;99.90;;;;;;5078782;28;19908;-67
2022/03/05 00:47:26;;;;;;;;;;;3.30;99.90;;;;;;5095596;28;20280;-63
2022/03/05 00:49:53;;;;;;;;;;;3.30;99.90;;;;;;5095529;28;19919;-64
2022/03/05 00:52:18;;;;;;;;;;;3.20;99.90;;;;;;5078141;28;19912;-64
2022/03/05 00:54:44;;;;;;;;;;;3.20;99.90;;;;;;5095751;28;19923;-64
2022/03/05 00:57:09;;;;;;;;;;;3.30;99.90;;;;;;5096024;28;19908;-67
2022/03/05 00:59:35;;;;;;;;;;;3.20;99.90;;;;;;5095260;28;19986;-64
2022/03/05 01:02:00;;;;;;;;;;;3.20;99.90;;;;;;5096117;28;20375;-64
2022/03/05 01:04:26;;;;;;;;;;;3.10;99.90;;;;;;5095115;28;19908;-67
2022/03/05 01:06:51;;;;;;;;;;;3.20;99.90;;;;;;5096133;28;19908;-65
2022/03/05 01:09:17;;;;;;;;;;;3.00;99.90;;;;;;5096070;28;20361;-66
2022/03/05 01:11:42;;;;;;;;;;;3.10;99.90;;;;;;5094816;28;19915;-65
2022/03/05 01:14:08;;;;;;;;;;;3.10;99.90;;;;;;5091245;28;19999;-65
2022/03/05 01:16:34;;;;;;;;;;;3.10;99.90;;;;;;5076223;28;19908;-67
2022/03/05 01:19:00;;;;;;;;;;;3.10;99.90;;;;;;5095399;28;20281;-64
2022/03/05 01:21:27;;;;;;;;;;;2.90;99.90;;;;;;5094791;28;19950;-66
2022/03/05 01:23:53;;;;;;;;;;;2.90;99.90;;;;;;5086265;28;19924;-65
2022/03/05 01:26:18;;;;;;;;;;;2.90;99.90;;;;;;5077030;28;19909;-65
2022/03/05 01:28:44;;;;;;;;;;;2.70;99.90;;;;;;5059079;28;19999;-63
2022/03/05 01:31:09;;;;;;;;;;;2.80;99.90;;;;;;5076705;28;19912;-65
2022/03/05 01:33:35;;;;;;;;;;;2.90;99.90;;;;;;5058448;28;19912;-66
2022/03/05 01:36:00;;;;;;;;;;;2.90;99.90;;;;;;5077410;28;19915;-64
2022/03/05 01:38:26;;;;;;;;;;;2.80;99.90;;;;;;5057795;28;20281;-69
2022/03/05 01:40:51;;;;;;;;;;;2.80;99.90;;;;;;5075506;28;19908;-66
2022/03/05 01:43:17;;;;;;;;;;;2.80;99.90;;;;;;5075171;28;19931;-64
2022/03/05 01:45:42;;;;;;;;;;;2.70;99.90;;;;;;5074300;28;19908;-65
2022/03/05 01:48:08;;;;;;;;;;;2.60;99.90;;;;;;5057071;28;19912;-65
2022/03/05 01:50:34;;;;;;;;;;;2.60;99.90;;;;;;5074265;28;19958;-65
2022/03/05 01:52:59;;;;;;;;;;;2.60;99.90;;;;;;5074614;28;20004;-67
2022/03/05 01:55:25;;;;;;;;;;;2.70;99.90;;;;;;5075054;28;19919;-64
2022/03/05 01:57:51;;;;;;;;;;;2.50;99.90;;;;;;5074266;28;19908;-66
2022/03/05 02:00:16;;;;;;;;;;;2.50;99.90;;;;;;5075100;28;19916;-65
2022/03/05 02:02:42;;;;;;;;;;;2.50;99.90;;;;;;5073311;28;20431;-65
2022/03/05 02:05:09;;;;;;;;;;;2.50;99.90;;;;;;5056474;28;20387;-65
2022/03/05 02:07:35;;;;;;;;;;;2.50;99.90;;;;;;5055986;28;19912;-64
2022/03/05 02:10:00;;;;;;;;;;;2.50;99.90;;;;;;5074613;28;19974;-64
2022/03/05 02:12:30;;;;;;;;;;;2.50;99.90;;;;;;5074401;28;20357;-64
2022/03/05 02:14:56;;;;;;;;;;;2.60;99.90;;;;;;5058625;28;19919;-66
2022/03/05 02:17:22;;;;;;;;;;;2.50;99.90;;;;;;5074151;28;19966;-64
2022/03/05 02:19:47;;;;;;;;;;;2.60;99.90;;;;;;5073330;28;20536;-65
2022/03/05 02:22:13;;;;;;;;;;;2.50;99.90;;;;;;5055931;28;20369;-65
2022/03/05 02:24:39;;;;;;;;;;;2.50;99.90;;;;;;5073033;28;20019;-65
2022/03/05 02:27:06;;;;;;;;;;;2.50;99.90;;;;;;5055945;28;20083;-64
2022/03/05 02:29:32;;;;;;;;;;;2.40;99.90;;;;;;5055387;28;19913;-65
2022/03/05 02:31:57;;;;;;;;;;;2.40;99.90;;;;;;5073404;28;19908;-65
2022/03/05 02:34:23;;;;;;;;;;;2.50;99.90;;;;;;5074044;28;20346;-68
2022/03/05 02:36:49;;;;;;;;;;;2.50;99.90;;;;;;5073068;28;20590;-65
2022/03/05 02:39:14;;;;;;;;;;;2.40;99.90;;;;;;5056132;28;19909;-65
2022/03/05 02:41:40;;;;;;;;;;;2.40;99.90;;;;;;5073153;28;19913;-65
2022/03/05 02:44:05;;;;;;;;;;;2.40;99.90;;;;;;5073738;28;19913;-65
2022/03/05 02:46:34;;;;;;;;;;;2.40;99.90;;;;;;5055422;28;19915;-66
2022/03/05 02:49:00;;;;;;;;;;;2.30;99.90;;;;;;5055792;28;19958;-69
2022/03/05 02:51:25;;;;;;;;;;;2.30;99.90;;;;;;5073576;28;19916;-65
2022/03/05 02:53:51;;;;;;;;;;;2.40;99.90;;;;;;5073698;28;19974;-65
2022/03/05 02:56:16;;;;;;;;;;;2.30;99.90;;;;;;5074658;28;19984;-65
2022/03/05 02:58:42;;;;;;;;;;;2.40;99.90;;;;;;5072820;28;19916;-64
2022/03/05 03:01:08;;;;;;;;;;;2.30;99.90;;;;;;5073896;28;20416;-67
2022/03/05 03:03:35;;;;;;;;;;;2.20;99.90;;;;;;5054920;28;19988;-63
2022/03/05 03:06:00;;;;;;;;;;;2.20;99.90;;;;;;5055338;28;19908;-67
2022/03/05 03:08:26;;;;;;;;;;;2.10;99.90;;;;;;5073308;28;19966;-64
2022/03/05 03:10:51;;;;;;;;;;;2.10;99.90;;;;;;5073168;28;19924;-65
2022/03/05 03:13:17;;;;;;;;;;;2.00;99.90;;;;;;5073640;28;19912;-64
2022/03/05 03:15:43;;;;;;;;;;;2.10;99.90;;;;;;5073288;28;19916;-65
2022/03/05 03:18:09;;;;;;;;;;;2.10;99.90;;;;;;5055821;28;19908;-65
2022/03/05 03:20:34;;;;;;;;;;;2.20;99.90;;;;;;5072984;28;19954;-64
2022/03/05 03:22:59;;;;;;;;;;;2.10;99.90;;;;;;5055553;28;19967;-70
2022/03/05 03:25:25;;;;;;;;;;;2.20;99.90;;;;;;5073899;28;19927;-63
2022/03/05 03:27:51;;;;;;;;;;;2.30;99.90;;;;;;5073282;28;19912;-66
2022/03/05 03:30:17;;;;;;;;;;;2.10;99.90;;;;;;5074473;28;19913;-72
2022/03/05 03:32:43;;;;;;;;;;;2.10;99.90;;;;;;5074197;28;19916;-65
2022/03/05 03:35:09;;;;;;;;;;;2.10;99.90;;;;;;5074863;28;19909;-64
2022/03/05 03:37:35;;;;;;;;;;;2.20;99.90;;;;;;5073515;28;19916;-64
2022/03/05 03:40:02;;;;;;;;;;;2.10;99.90;;;;;;5074339;28;19908;-65
2022/03/05 03:42:27;;;;;;;;;;;2.20;99.90;;;;;;5074056;28;19913;-64
2022/03/05 03:44:53;;;;;;;;;;;2.20;99.90;;;;;;5072502;28;19920;-64
2022/03/05 03:47:20;;;;;;;;;;;2.10;99.90;;;;;;5055141;28;19912;-65
2022/03/05 03:49:45;;;;;;;;;;;2.00;99.90;;;;;;5072193;28;20018;-65
2022/03/05 03:52:13;;;;;;;;;;;2.10;99.90;;;;;;5072472;28;20008;-63
2022/03/05 03:54:39;;;;;;;;;;;2.00;99.90;;;;;;5054394;28;19954;-64
2022/03/05 03:57:05;;;;;;;;;;;2.00;99.90;;;;;;5072688;28;19909;-66
2022/03/05 03:59:30;;;;;;;;;;;2.10;99.90;;;;;;5072743;28;19931;-65
2022/03/05 04:01:56;;;;;;;;;;;2.00;99.90;;;;;;5054333;28;19908;-64
2022/03/05 04:04:21;;;;;;;;;;;2.00;99.90;;;;;;5055070;28;20391;-63
2022/03/05 04:09:30;;;;;;;;;;;2.10;99.90;;;;;;5074241;28;19923;-64
2022/03/05 04:11:56;;;;;;;;;;;2.00;99.90;;;;;;5055137;28;20003;-63
2022/03/05 04:14:21;;;;;;;;;;;1.90;99.90;;;;;;5073461;28;20297;-66
2022/03/05 04:16:47;;;;;;;;;;;2.00;99.90;;;;;;5054307;28;19957;-64
2022/03/05 04:19:12;;;;;;;;;;;1.90;99.90;;;;;;5072352;28;19931;-64
2022/03/05 04:21:38;;;;;;;;;;;1.90;99.90;;;;;;5071854;28;19909;-64
2022/03/05 04:24:04;;;;;;;;;;;2.00;99.90;;;;;;5072722;28;19979;-64
2022/03/05 04:26:29;;;;;;;;;;;2.00;99.90;;;;;;5057798;28;20354;-67
2022/03/05 04:28:55;;;;;;;;;;;1.90;99.90;;;;;;5075138;28;20189;-65
2022/03/05 04:31:20;;;;;;;;;;;1.90;99.90;;;;;;5058126;28;19926;-65
2022/03/05 04:33:46;;;;;;;;;;;1.90;99.90;;;;;;5075420;28;19915;-65
2022/03/05 04:36:11;;;;;;;;;;;1.90;99.90;;;;;;5076148;28;20372;-64
2022/03/05 04:38:37;;;;;;;;;;;1.80;99.90;;;;;;5075958;28;19909;-72
2022/03/05 04:41:03;;;;;;;;;;;1.90;99.90;;;;;;5058257;28;19958;-63
2022/03/05 04:43:28;;;;;;;;;;;1.90;99.90;;;;;;5076011;28;20345;-64
2022/03/05 04:45:54;;;;;;;;;;;1.90;99.90;;;;;;5075124;28;19967;-64
2022/03/05 04:48:19;;;;;;;;;;;1.90;99.90;;;;;;5075496;28;19966;-63
2022/03/05 04:50:48;;;;;;;;;;;1.80;99.90;;;;;;5075103;28;19983;-64
2022/03/05 04:53:14;;;;;;;;;;;1.90;99.90;;;;;;5075695;28;20018;-64
2022/03/05 04:55:39;;;;;;;;;;;1.90;99.90;;;;;;5075137;28;20378;-64
2022/03/05 04:58:05;;;;;;;;;;;1.90;99.90;;;;;;5058428;28;20019;-64
2022/03/05 05:00:30;;;;;;;;;;;1.90;99.90;;;;;;5076336;28;19931;-65
2022/03/05 05:02:56;;;;;;;;;;;1.80;99.90;;;;;;5075887;28;20353;-65
2022/03/05 05:05:21;;;;;;;;;;;1.80;99.90;;;;;;5058267;28;19935;-67
2022/03/05 05:07:47;;;;;;;;;;;1.90;99.90;;;;;;5075411;28;19912;-66
2022/03/05 05:10:12;;;;;;;;;;;1.90;99.90;;;;;;5076206;28;19912;-65
2022/03/05 05:12:38;;;;;;;;;;;1.80;99.90;;;;;;5057901;28;19908;-63
2022/03/05 05:15:04;;;;;;;;;;;1.80;99.90;;;;;;5075436;28;19930;-65
2022/03/05 05:17:36;;;;;;;;;;;1.80;99.90;;;;;;5057231;28;19908;-64
2022/03/05 05:20:03;;;;;;;;;;;1.80;99.90;;;;;;5074901;28;19978;-66
2022/03/05 05:22:29;;;;;;;;;;;1.80;99.90;;;;;;5058042;28;19923;-64
2022/03/05 05:24:55;;;;;;;;;;;1.80;99.90;;;;;;5074887;28;20413;-64
2022/03/05 05:27:21;;;;;;;;;;;1.80;99.90;;;;;;5077643;28;19919;-64
2022/03/05 05:29:46;;;;;;;;;;;1.80;99.90;;;;;;5094460;28;19935;-64
2022/03/05 05:32:11;;;;;;;;;;;1.80;99.90;;;;;;5077189;28;19908;-66
2022/03/05 05:34:37;;;;;;;;;;;1.80;99.90;;;;;;5078251;28;19914;-68
2022/03/05 05:37:03;;;;;;;;;;;1.90;99.90;;;;;;5093893;28;19914;-64
2022/03/05 05:39:28;;;;;;;;;;;1.80;99.90;;;;;;5094711;28;19935;-64
2022/03/05 05:41:55;;;;;;;;;;;1.80;99.90;;;;;;5076420;28;19912;-63
2022/03/05 05:44:20;;;;;;;;;;;1.70;99.90;;;;;;5094727;28;19994;-64
2022/03/05 05:46:46;;;;;;;;;;;1.70;99.90;;;;;;5094239;28;19962;-65
2022/03/05 05:49:11;;;;;;;;;;;1.70;99.90;;;;;;5094733;28;19916;-64
2022/03/05 05:51:37;;;;;;;;;;;1.70;99.90;;;;;;5094650;28;19912;-66
2022/03/05 05:54:03;;;;;;;;;;;1.80;99.90;;;;;;5095352;28;19963;-66
2022/03/05 05:56:29;;;;;;;;;;;1.70;99.90;;;;;;5096069;28;20019;-64
2022/03/05 05:58:54;;;;;;;;;;;1.70;99.90;;;;;;5094005;28;19908;-64
2022/03/05 06:01:20;;;;;;;;;;;1.60;99.90;;;;;;5076598;28;19908;-64
2022/03/05 06:03:45;;;;;;;;;;;1.50;99.90;;;;;;5094301;28;19912;-63
2022/03/05 06:06:11;;;;;;;;;;;1.60;99.90;;;;;;5096736;28;19908;-64
2022/03/05 06:08:37;;;;;;;;;;;1.60;99.90;;;;;;5077111;28;20372;-67
2022/03/05 06:11:03;;;;;;;;;;;1.60;99.90;;;;;;5094049;28;19923;-65
2022/03/05 06:13:28;;;;;;;;;;;1.70;99.90;;;;;;5094789;28;19955;-64
2022/03/05 06:15:54;;;;;;;;;;;1.80;99.90;;;;;;5093624;28;20003;-64
2022/03/05 06:18:19;;;;;;;;;;;1.80;99.90;;;;;;5076616;28;20354;-63
2022/03/05 06:20:45;;;;;;;;;;;1.80;99.90;;;;;;5094674;28;20297;-66
2022/03/05 06:23:10;;;;;;;;;;;1.80;99.90;;;;;;5075259;28;19924;-65
2022/03/05 06:25:36;;;;;;;;;;;1.80;99.90;;;;;;5076877;28;19964;-65
2022/03/05 06:28:01;;;;;;;;;;;1.80;99.90;;;;;;5075972;28;19913;-65
2022/03/05 06:30:27;;;;;;;;;;;1.80;99.90;;;;;;5075729;28;19919;-66
2022/03/05 06:32:52;;;;;;;;;;;1.70;99.90;;;;;;5073778;28;19913;-64
2022/03/05 06:35:18;;;;;;;;;;;1.80;99.90;;;;;;5074311;28;19915;-68
2022/03/05 06:37:44;;;;;;;;;;;1.90;99.90;;;;;;5075326;28;19908;-70
2022/03/05 06:40:13;;;;;;;;;;;2.10;99.90;;;;;;5074977;28;19912;-67
2022/03/05 06:42:39;;;;;;;;;;;2.10;99.90;;;;;;5074922;28;19908;-65
2022/03/05 06:45:05;;;;;;;;;;;2.10;99.90;;;;;;5073023;28;19912;-63
2022/03/05 06:47:32;;;;;;;;;;;2.20;99.90;;;;;;5053469;28;19962;-64
2022/03/05 06:49:58;;;;;;;;;;;2.30;99.90;;;;;;5072758;28;19992;-65
2022/03/05 06:52:23;;;;;;;;;;;2.40;99.90;;;;;;5055436;28;19948;-65
2022/03/05 06:54:49;;;;;;;;;;;2.50;99.90;;;;;;5072531;28;20333;-64
2022/03/05 06:57:14;;;;;;;;;;;2.60;99.90;;;;;;5055594;28;19958;-64
2022/03/05 06:59:40;;;;;;;;;;;2.70;99.90;;;;;;5055075;28;19908;-65
2022/03/05 07:02:05;;;;;;;;;;;3.10;99.90;;;;;;5054123;28;19916;-65
2022/03/05 07:04:31;;;;;;;;;;;3.30;99.90;;;;;;5072925;28;20366;-63
2022/03/05 07:06:56;;;;;;;;;;;4.00;99.90;;;;;;5054276;28;19915;-63
2022/03/05 07:09:22;;;;;;;;;;;4.30;99.90;;;;;;5055094;28;19919;-63
2022/03/05 07:11:47;;;;;;;;;;;4.40;99.90;;;;;;5072515;28;20045;-69
2022/03/05 07:14:13;;;;;;;;;;;4.40;99.90;;;;;;5054674;28;19991;-65
2022/03/05 07:16:38;;;;;;;;;;;4.50;99.90;;;;;;5072727;28;19974;-67
2022/03/05 07:19:04;;;;;;;;;;;4.60;99.70;;;;;;5072274;28;19909;-62
2022/03/05 07:21:30;;;;;;;;;;;4.80;99.30;;;;;;5065399;28;19938;-67
2022/03/05 07:23:58;;;;;;;;;;;5.00;98.80;;;;;;5080474;28;20015;-66
2022/03/05 07:26:24;;;;;;;;;;;5.10;98.30;;;;;;5074030;28;19994;-66
2022/03/05 07:28:50;;;;;;;;;;;5.30;97.90;;;;;;5092492;28;19919;-66
2022/03/05 07:31:15;;;;;;;;;;;5.30;97.40;;;;;;5072006;28;19916;-65
2022/03/05 07:33:41;;;;;;;;;;;5.70;97.40;;;;;;5073164;28;19908;-67
2022/03/05 07:36:07;;;;;;;;;;;5.80;96.70;;;;;;5091677;28;20393;-64
2022/03/05 07:38:33;;;;;;;;;;;6.10;95.90;;;;;;5093893;28;19915;-66
2022/03/05 07:40:58;;;;;;;;;;;6.10;95.60;;;;;;5074752;28;20245;-63
2022/03/05 07:43:24;;;;;;;;;;;6.30;95.20;;;;;;5072434;28;20432;-65
2022/03/05 07:45:49;;;;;;;;;;;6.50;95.10;;;;;;5073327;28;20007;-63
2022/03/05 07:48:19;;;;;;;;;;;6.70;94.50;;;;;;5083316;28;20035;-66
2022/03/05 07:50:45;;;;;;;;;;;6.90;94.10;;;;;;5081463;28;19912;-64
2022/03/05 07:53:10;;;;;;;;;;;7.30;93.50;;;;;;5083001;28;19923;-64
2022/03/05 07:55:36;;;;;;;;;;;7.30;93.10;;;;;;5060255;28;19958;-64
2022/03/05 07:58:01;;;;;;;;;;;7.50;92.80;;;;;;5072784;28;19962;-65
2022/03/05 08:00:27;;;;;;;;;;;7.60;92.40;;;;;;5074367;28;19912;-65
2022/03/05 08:02:53;;;;;;;;;;;8.00;92.10;;;;;;5079782;28;19912;-64
2022/03/05 08:05:18;;;;;;;;;;;8.10;91.60;;;;;;5090795;28;19918;-66
2022/03/05 08:07:44;;;;;;;;;;;7.90;92.20;;;;;;5086457;28;19919;-68
2022/03/05 08:10:09;;;;;;;;;;;8.10;92.10;;;;;;5083976;28;20423;-66
2022/03/05 08:12:35;;;;;;;;;;;8.40;91.30;;;;;;5083782;28;19966;-65
2022/03/05 08:15:01;;;;;;;;;;;8.70;91.10;;;;;;5088536;28;20277;-65
2022/03/05 08:17:26;;;;;;;;;;;8.60;90.80;;;;;;5082670;28;19997;-65
2022/03/05 08:19:52;;;;;;;;;;;9.10;90.00;;;;;;5089327;28;20065;-69
2022/03/05 08:22:17;;;;;;;;;;;9.50;89.20;;;;;;5077195;28;19966;-65
2022/03/05 08:24:43;;;;;;;;;;;9.70;86.40;;;;;;5088135;28;20378;-67
2022/03/05 08:27:08;;;;;;;;;;;9.30;87.10;;;;;;5091379;28;19916;-65
2022/03/05 08:29:34;;;;;;;;;;;9.20;87.90;;;;;;5078428;28;20365;-65
2022/03/05 08:31:59;;;;;;;;;;;9.70;87.20;;;;;;5070226;28;19908;-64
2022/03/05 08:34:25;;;;;;;;;;;9.70;86.90;;;;;;5067350;28;20368;-66
2022/03/05 08:36:50;;;;;;;;;;;9.90;85.60;;;;;;5092243;28;19908;-66
2022/03/05 08:39:16;;;;;;;;;;;10.40;84.10;;;;;;5096687;28;19908;-68
2022/03/05 08:41:41;;;;;;;;;;;10.60;83.70;;;;;;5097783;28;19934;-67
2022/03/05 08:44:07;;;;;;;;;;;10.40;82.40;;;;;;5094300;28;19912;-66
2022/03/05 08:46:32;;;;;;;;;;;10.60;82.60;;;;;;5078694;28;19915;-66
2022/03/05 08:48:58;;;;;;;;;;;11.20;80.80;;;;;;5091838;28;19941;-64
2022/03/05 08:51:24;;;;;;;;;;;11.10;79.70;;;;;;5088867;28;20064;-65
2022/03/05 08:53:49;;;;;;;;;;;11.10;80.40;;;;;;5076519;28;20030;-74
2022/03/05 08:56:15;;;;;;;;;;;10.50;80.90;;;;;;5095538;28;20257;-65
2022/03/05 08:58:40;;;;;;;;;;;11.00;79.90;;;;;;5094876;28;19920;-64
2022/03/05 09:01:06;;;;;;;;;;;11.30;78.50;;;;;;5070777;28;19985;-65
2022/03/05 09:03:32;;;;;;;;;;;11.20;78.70;;;;;;5073373;28;19978;-65
2022/03/05 09:05:58;;;;;;;;;;;11.50;79.30;;;;;;5093466;28;19920;-67
2022/03/05 09:08:23;;;;;;;;;;;11.10;82.20;;;;;;5094807;28;19999;-67
2022/03/05 09:10:49;;;;;;;;;;;11.40;80.60;;;;;;5094411;28;19912;-68
2022/03/05 09:13:14;;;;;;;;;;;11.90;82.50;;;;;;5076660;28;19934;-67
2022/03/05 09:15:40;;;;;;;;;;;12.20;76.10;;;;;;5095281;28;19912;-65
2022/03/05 09:18:05;;;;;;;;;;;12.20;76.40;;;;;;5090812;28;20405;-66
2022/03/05 09:20:31;;;;;;;;;;;12.50;77.20;;;;;;5080589;28;20234;-65
2022/03/05 09:22:58;;;;;;;;;;;12.10;75.20;;;;;;5070876;28;19939;-66
2022/03/05 09:25:24;;;;;;;;;;;11.20;76.00;;;;;;5093143;28;19958;-69
2022/03/05 09:27:49;;;;;;;;;;;11.40;76.80;;;;;;5094805;28;19912;-65
2022/03/05 09:30:15;;;;;;;;;;;12.00;75.00;;;;;;5094102;28;20377;-66
2022/03/05 09:32:41;;;;;;;;;;;12.40;74.50;;;;;;5073752;28;19919;-66
2022/03/05 09:35:06;;;;;;;;;;;12.00;76.00;;;;;;5094277;28;19919;-66
2022/03/05 09:37:33;;;;;;;;;;;12.10;75.70;;;;;;5084796;28;19916;-67
2022/03/05 09:39:59;;;;;;;;;;;11.90;75.70;;;;;;5074330;28;20277;-66
2022/03/05 09:42:25;;;;;;;;;;;12.20;80.30;;;;;;5057202;28;19908;-68
2022/03/05 09:44:51;;;;;;;;;;;12.50;74.30;;;;;;5075528;28;20049;-67
2022/03/05 09:47:16;;;;;;;;;;;13.20;76.80;;;;;;5057877;28;20275;-65
2022/03/05 09:49:42;;;;;;;;;;;;;;;;;;5067303;28;20322;-66
2022/03/05 09:52:08;;;;;;;;;;;14.60;95.90;;;;;;5083829;28;20345;-68
2022/03/05 09:54:34;;;;;;;;;;;13.50;74.50;;;;;;5075649;28;20352;-67
2022/03/05 09:57:00;;;;;;;;;;;13.80;72.30;;;;;;5094702;28;19908;-68
2022/03/05 09:59:25;;;;;;;;;;;13.50;71.10;;;;;;5073036;28;19920;-68
2022/03/05 10:01:51;;;;;;;;;;;13.70;72.00;;;;;;5071150;28;19912;-66
2022/03/05 10:04:24;;;;;;;;;;;14.40;70.00;;;;;;5081220;28;19917;-68
2022/03/05 10:07:05;;;;;;;;;;;15.00;68.60;;;;;;5071600;28;19915;-67
2022/03/05 10:09:31;;;;;;;;;;;14.10;67.80;;;;;;5072152;28;20318;-67
2022/03/05 10:11:56;;;;;;;;;;;13.20;69.60;;;;;;5071422;28;19931;-69
2022/03/05 10:14:22;;;;;;;;;;;13.20;70.00;;;;;;5070896;28;19962;-67
2022/03/05 10:16:47;;;;;;;;;;;12.80;71.90;;;;;;5054044;28;19912;-67
2022/03/05 10:19:20;;;;;;;;;;;13.70;70.10;;;;;;5071162;28;20201;-67
2022/03/05 10:22:04;;;;;;;;;;;13.70;69.40;;;;;;5070728;28;19952;-67
2022/03/05 10:24:31;;;;;;;;;;;14.00;69.60;;;;;;5052806;28;19932;-66
2022/03/05 10:26:57;;;;;;;;;;;14.40;68.20;;;;;;5053344;28;20269;-68
2022/03/05 10:29:24;;;;;;;;;;;15.00;68.10;;;;;;5053362;28;19912;-67
2022/03/05 10:32:01;;;;;;;;;;;15.50;66.70;;;;;;5053377;28;19912;-67
2022/03/05 10:34:28;;;;;;;;;;;15.60;65.60;;;;;;5071363;28;20010;-66
2022/03/05 10:37:00;;;;;;;;;;;16.20;64.10;;;;;;5071474;28;19908;-67
2022/03/05 10:39:26;;;;;;;;;;;16.00;63.10;;;;;;5052749;28;19962;-66
2022/03/05 10:41:54;;;;;;;;;;;16.20;64.00;;;;;;5070969;28;19909;-66
2022/03/05 10:44:21;;;;;;;;;;;16.80;61.30;;;;;;5070587;28;20025;-67
2022/03/05 10:46:56;;;;;;;;;;;16.90;60.60;;;;;;5070827;28;20325;-66
2022/03/05 10:49:27;;;;;;;;;;;16.80;60.50;;;;;;5071099;28;19912;-68
2022/03/05 10:52:02;;;;;;;;;;;16.40;58.90;;;;;;5051916;28;20377;-68
2022/03/05 10:54:41;;;;;;;;;;;15.00;61.80;;;;;;5071265;28;19909;-66
2022/03/05 10:57:13;;;;;;;;;;;14.60;61.50;;;;;;5070372;28;19981;-66
2022/03/05 10:59:43;;;;;;;;;;;15.00;60.30;;;;;;5053062;28;19956;-66
2022/03/05 11:02:12;;;;;;;;;;;14.50;61.50;;;;;;5069647;28;19908;-66
2022/03/05 11:04:39;;;;;;;;;;;15.30;61.60;;;;;;5070515;28;20346;-67
2022/03/05 11:07:06;;;;;;;;;;;16.30;59.80;;;;;;5070043;28;19916;-67
2022/03/05 11:09:32;;;;;;;;;;;15.20;59.20;;;;;;5053247;28;20354;-66
2022/03/05 11:11:59;;;;;;;;;;;15.50;59.00;;;;;;5070602;28;19908;-71
2022/03/05 11:14:25;;;;;;;;;;;14.50;59.90;;;;;;5052672;28;19908;-67
2022/03/05 11:16:50;;;;;;;;;;;15.10;58.90;;;;;;5070996;28;20321;-67
2022/03/05 11:19:17;;;;;;;;;;;15.70;59.10;;;;;;5070519;28;20431;-66
2022/03/05 11:21:43;;;;;;;;;;;16.00;58.00;;;;;;5052280;28;19919;-66
2022/03/05 11:24:13;;;;;;;;;;;17.00;57.20;;;;;;5051259;28;19979;-66
2022/03/05 11:26:40;;;;;;;;;;;16.60;57.10;;;;;;5070361;28;19967;-67
2022/03/05 11:29:05;;;;;;;;;;;17.10;56.70;;;;;;5069792;28;19995;-65
2022/03/05 11:31:32;;;;;;;;;;;17.00;55.90;;;;;;5052375;28;20321;-67
2022/03/05 11:34:12;;;;;;;;;;;17.20;54.80;;;;;;5051967;28;19913;-67
2022/03/05 11:36:38;;;;;;;;;;;15.60;55.50;;;;;;5073460;28;20007;-65
2022/03/05 11:39:08;;;;;;;;;;;16.70;55.10;;;;;;5071994;28;19909;-66
2022/03/05 11:41:49;;;;;;;;;;;16.40;54.20;;;;;;5074246;28;19912;-66
2022/03/05 11:44:15;;;;;;;;;;;13.80;56.10;;;;;;5084267;28;19913;-67
2022/03/05 11:46:40;;;;;;;;;;;13.50;57.10;;;;;;5057729;28;20173;-65
2022/03/05 11:49:07;;;;;;;;;;;13.20;57.10;;;;;;5073017;28;20273;-65
2022/03/05 11:51:33;;;;;;;;;;;13.50;57.20;;;;;;5068074;28;19990;-67
2022/03/05 11:54:12;;;;;;;;;;;13.60;57.40;;;;;;5089304;28;19924;-65
2022/03/05 11:56:37;;;;;;;;;;;15.20;56.10;;;;;;5076587;28;20269;-68
2022/03/05 11:59:23;;;;;;;;;;;14.90;55.10;;;;;;5079121;28;19908;-67
2022/03/05 12:01:50;;;;;;;;;;;13.20;54.70;;;;;;5073813;28;20007;-64
2022/03/05 12:04:22;;;;;;;;;;;12.10;56.70;;;;;;5070147;28;19916;-68
2022/03/05 12:06:50;;;;;;;;;;;12.10;56.90;;;;;;5059902;28;19919;-65
2022/03/05 12:09:32;;;;;;;;;;;13.10;55.30;;;;;;5075309;28;19912;-66
2022/03/05 12:11:59;;;;;;;;;;;13.50;53.70;;;;;;5077731;28;19919;-75
2022/03/05 12:14:44;;;;;;;;;;;13.80;52.90;;;;;;5059664;28;20011;-66
2022/03/05 12:17:09;;;;;;;;;;;12.50;53.50;;;;;;5089236;28;20423;-70
2022/03/05 12:19:35;;;;;;;;;;;12.20;54.70;;;;;;5079176;28;19912;-68
2022/03/05 12:22:01;;;;;;;;;;;12.60;54.30;;;;;;5064803;28;19946;-66
2022/03/05 12:24:28;;;;;;;;;;;12.90;54.40;;;;;;5076158;28;19927;-66
2022/03/05 12:26:56;;;;;;;;;;;12.10;55.30;;;;;;5058309;28;20377;-71
2022/03/05 12:29:21;;;;;;;;;;;13.20;54.40;;;;;;5057696;28;20170;-68
2022/03/05 12:31:47;;;;;;;;;;;12.60;54.20;;;;;;5076090;28;20285;-65
2022/03/05 12:34:13;;;;;;;;;;;12.90;54.90;;;;;;5075369;28;20322;-66
2022/03/05 12:36:42;;;;;;;;;;;12.90;53.90;;;;;;5075126;28;19915;-65
2022/03/05 12:39:09;;;;;;;;;;;12.50;54.40;;;;;;5074997;28;19947;-67
2022/03/05 12:41:35;;;;;;;;;;;12.20;54.80;;;;;;5075550;28;19989;-69
2022/03/05 12:44:00;;;;;;;;;;;12.80;53.90;;;;;;5056657;28;20350;-67
2022/03/05 12:46:26;;;;;;;;;;;13.50;54.70;;;;;;5058461;28;19924;-68
2022/03/05 12:48:52;;;;;;;;;;;14.00;53.80;;;;;;5090203;28;19913;-69
2022/03/05 12:51:20;;;;;;;;;;;12.00;54.60;;;;;;5089423;28;19963;-69
2022/03/05 12:53:45;;;;;;;;;;;12.30;54.60;;;;;;5095970;28;19917;-72
2022/03/05 12:56:11;;;;;;;;;;;10.90;56.30;;;;;;5095038;28;19908;-73
2022/03/05 12:58:40;;;;;;;;;;;10.80;56.70;;;;;;5096138;28;19912;-70
2022/03/05 13:01:07;;;;;;;;;;;11.00;56.40;;;;;;5095193;28;19911;-69
2022/03/05 13:03:33;;;;;;;;;;;11.00;56.40;;;;;;5097251;28;19904;-68
2022/03/05 13:05:59;;;;;;;;;;;10.90;56.20;;;;;;5096159;28;19911;-69
2022/03/05 13:08:26;;;;;;;;;;;10.30;56.80;;;;;;5090656;28;19920;-70
2022/03/05 13:11:18;;;;;;;;;;;11.30;56.40;;;;;;5075614;28;19919;-68
2022/03/05 13:13:58;;;;;;;;;;;11.60;56.20;;;;;;5089550;28;19994;-71
2022/03/05 13:16:24;;;;;;;;;;;12.10;55.10;;;;;;5087870;28;20080;-70
2022/03/05 13:18:56;;;;;;;;;;;12.30;55.00;;;;;;5086106;28;19904;-70
2022/03/05 13:21:22;;;;;;;;;;;12.10;55.20;;;;;;5094713;28;19950;-69
2022/03/05 13:23:47;;;;;;;;;;;12.80;55.10;;;;;;5093329;28;19924;-68
2022/03/05 13:26:13;;;;;;;;;;;13.30;54.50;;;;;;5091965;28;20291;-67
2022/03/05 13:28:39;;;;;;;;;;;13.80;54.00;;;;;;5086973;28;20326;-69
2022/03/05 13:31:05;;;;;;;;;;;13.10;54.10;;;;;;5075179;28;19908;-70
2022/03/05 13:33:34;;;;;;;;;;;13.00;54.60;;;;;;5093421;28;20305;-68
2022/03/05 13:36:08;;;;;;;;;;;13.20;54.80;;;;;;5093431;28;20227;-67
2022/03/05 13:38:34;;;;;;;;;;;13.20;55.00;;;;;;5089069;28;19931;-68
2022/03/05 13:41:02;;;;;;;;;;;12.50;55.40;;;;;;5059343;28;19908;-68
2022/03/05 13:43:28;;;;;;;;;;;12.60;55.80;;;;;;5094432;28;20003;-67
2022/03/05 13:45:54;;;;;;;;;;;12.50;55.70;;;;;;5095253;28;20000;-69
2022/03/05 13:48:20;;;;;;;;;;;12.30;56.00;;;;;;5072314;28;20249;-69
2022/03/05 13:50:45;;;;;;;;;;;12.10;55.70;;;;;;5069556;28;19908;-68
2022/03/05 13:53:11;;;;;;;;;;;11.80;56.60;;;;;;5094058;28;19935;-68
2022/03/05 13:55:36;;;;;;;;;;;13.60;77.00;;;;;;5094120;28;19912;-66
2022/03/05 13:58:02;;;;;;;;;;;13.20;67.60;;;;;;5073973;28;19915;-67
2022/03/05 14:00:29;;;;;;;;;;;13.10;62.30;;;;;;5093492;28;20268;-65
2022/03/05 14:02:55;;;;;;;;;;;12.60;59.50;;;;;;5094741;28;19904;-68
2022/03/05 14:05:31;;;;;;;;;;;12.70;61.20;;;;;;5075939;28;20268;-66
2022/03/05 14:07:58;;;;;;;;;;;13.20;59.30;;;;;;5074761;28;19965;-70
2022/03/05 14:10:24;;;;;;;;;;;13.20;60.20;;;;;;5072452;28;19984;-69
2022/03/05 14:12:54;;;;;;;;;;;12.80;60.00;;;;;;5074590;28;19911;-67
2022/03/05 14:15:24;;;;;;;;;;;13.00;65.20;;;;;;5074181;28;19947;-67
2022/03/05 14:18:06;;;;;;;;;;;12.60;61.30;;;;;;5074959;28;19904;-66
2022/03/05 14:20:43;;;;;;;;;;;12.50;60.50;;;;;;5066215;28;19965;-66
2022/03/05 14:23:12;;;;;;;;;;;12.80;63.80;;;;;;5069546;28;19935;-68
2022/03/05 14:25:38;;;;;;;;;;;12.60;61.70;;;;;;5053798;28;19904;-60